Time;durP1;ratioP1;P1;durP2;ratioP2;P2;SDS_P1;SDS_P2;PMS_P1;PMS_P2;Temp;Humidity;BMP_temperature;BMP_pressure;BME280_temperature;BME280_humidity;BME280_pressure;Samples;Min_cycle;Max_cycle;Signal;HPM_P1;HPM_P2
2022/06/18 00:00:26;;;;;;;3.17;2.93;;;25.20;54.40;;;;;;6223037;23;20878;-89
2022/06/18 00:02:52;;;;;;;4.50;3.40;;;25.10;54.20;;;;;;6223126;23;20442;-90
2022/06/18 00:05:19;;;;;;;3.53;3.20;;;25.10;54.50;;;;;;6222517;23;20555;-88
2022/06/18 00:07:56;;;;;;;3.93;3.30;;;25.10;54.40;;;;;;6223458;23;20415;-89
2022/06/18 00:10:27;;;;;;;3.93;3.53;;;25.10;54.30;;;;;;6226493;23;20388;-89
2022/06/18 00:15:46;;;;;;;5.03;3.60;;;25.00;54.20;;;;;;6257573;23;20438;-89
2022/06/18 00:18:13;;;;;;;5.50;3.13;;;25.00;54.20;;;;;;6223775;23;20464;-89
2022/06/18 00:20:40;;;;;;;6.93;3.50;;;25.00;54.30;;;;;;6250523;23;20156;-90
2022/06/18 00:23:14;;;;;;;4.10;3.07;;;25.00;54.20;;;;;;6249978;22;20995;-89
2022/06/18 00:25:43;;;;;;;5.97;3.50;;;25.00;54.30;;;;;;6250344;23;20362;-90
2022/06/18 00:28:21;;;;;;;4.80;3.40;;;25.00;54.40;;;;;;6251147;23;20904;-89
2022/06/18 00:30:48;;;;;;;5.87;3.60;;;24.90;54.30;;;;;;6223179;23;20383;-89
2022/06/18 00:33:15;;;;;;;5.67;3.73;;;24.90;54.70;;;;;;6223585;23;20779;-90
2022/06/18 00:36:00;;;;;;;5.70;3.80;;;24.90;54.70;;;;;;6250283;23;20459;-90
2022/06/18 00:38:34;;;;;;;4.80;3.33;;;24.90;54.90;;;;;;6223076;23;20506;-89
2022/06/18 00:41:01;;;;;;;9.60;3.43;;;24.80;55.10;;;;;;6249227;23;20517;-89
2022/06/18 00:43:32;;;;;;;4.60;3.67;;;24.80;55.40;;;;;;6249656;22;20917;-89
2022/06/18 00:46:13;;;;;;;4.70;3.77;;;24.80;55.50;;;;;;6222956;23;20379;-89
2022/06/18 00:48:47;;;;;;;6.17;4.00;;;24.80;55.40;;;;;;6222903;23;20382;-89
2022/06/18 00:51:40;;;;;;;5.43;3.80;;;24.80;55.20;;;;;;6225406;23;20427;-90
2022/06/18 00:54:17;;;;;;;3.70;3.30;;;24.80;55.20;;;;;;6223468;23;20446;-90
2022/06/18 00:56:59;;;;;;;4.93;3.60;;;24.80;55.20;;;;;;6250767;23;20363;-89
2022/06/18 00:59:50;;;;;;;4.30;3.27;;;24.80;55.00;;;;;;6223472;23;20397;-89
2022/06/18 01:02:32;;;;;;;4.43;3.53;;;24.80;55.00;;;;;;6224462;22;20719;-90
2022/06/18 01:04:58;;;;;;;5.50;3.50;;;24.70;55.10;;;;;;6222637;23;20446;-89
2022/06/18 01:07:31;;;;;;;4.30;3.90;;;24.70;55.00;;;;;;6223585;23;20376;-89
2022/06/18 01:09:59;;;;;;;6.50;4.27;;;24.70;55.10;;;;;;6224279;23;20288;-88
2022/06/18 01:12:25;;;;;;;5.47;4.13;;;24.70;55.10;;;;;;6225587;22;20395;-89
2022/06/18 01:15:00;;;;;;;4.47;3.87;;;24.70;55.20;;;;;;6222840;23;20387;-89
2022/06/18 01:17:26;;;;;;;3.87;3.47;;;24.60;55.10;;;;;;6222535;23;20375;-89
2022/06/18 01:19:52;;;;;;;6.40;3.77;;;24.60;55.40;;;;;;6222742;23;20478;-89
2022/06/18 01:22:55;;;;;;;5.77;3.77;;;24.60;55.20;;;;;;6223317;22;20376;-90
2022/06/18 01:25:26;;;;;;;5.47;3.57;;;24.60;55.50;;;;;;6223022;23;20218;-89
2022/06/18 01:27:56;;;;;;;4.50;4.10;;;24.50;55.40;;;;;;6223413;23;20376;-90
2022/06/18 01:30:25;;;;;;;7.90;3.87;;;24.50;55.20;;;;;;6223589;23;20383;-89
2022/06/18 01:32:53;;;;;;;7.27;4.27;;;24.50;55.50;;;;;;6250637;22;20469;-88
2022/06/18 01:35:21;;;;;;;4.63;4.07;;;24.50;55.60;;;;;;6224018;23;20380;-89
2022/06/18 01:37:48;;;;;;;9.93;3.90;;;24.50;55.50;;;;;;6250361;23;20861;-89
2022/06/18 01:40:22;;;;;;;4.80;3.70;;;24.50;55.50;;;;;;6250133;23;20399;-90
2022/06/18 01:42:50;;;;;;;5.63;3.70;;;24.40;55.10;;;;;;6199228;23;20410;-88
2022/06/18 01:45:22;;;;;;;7.37;5.17;;;24.40;55.20;;;;;;6222148;23;20496;-88
2022/06/18 01:48:06;;;;;;;6.37;4.03;;;24.40;55.30;;;;;;6221932;23;20368;-89
2022/06/18 01:50:56;;;;;;;6.80;4.20;;;24.40;55.40;;;;;;6221962;23;20755;-89
2022/06/18 01:53:29;;;;;;;3.40;3.10;;;24.40;55.40;;;;;;6249075;22;20483;-88
2022/06/18 01:56:00;;;;;;;4.87;3.87;;;24.30;55.50;;;;;;6221390;23;20441;-88
2022/06/18 01:58:42;;;;;;;13.23;4.30;;;24.30;55.30;;;;;;6248965;23;20356;-89
2022/06/18 02:01:15;;;;;;;4.33;3.60;;;24.30;56.20;;;;;;6221863;23;20383;-88
2022/06/18 02:03:41;;;;;;;4.70;3.60;;;24.30;55.40;;;;;;6221018;23;20434;-88
2022/06/18 02:06:08;;;;;;;6.97;4.23;;;24.30;55.50;;;;;;6221285;23;20375;-87
2022/06/18 02:08:34;;;;;;;6.53;4.10;;;24.30;55.50;;;;;;6195328;23;20232;-87
2022/06/18 02:11:03;;;;;;;5.97;3.50;;;24.20;55.10;;;;;;6221292;23;20402;-87
2022/06/18 02:13:37;;;;;;;7.20;4.33;;;24.20;55.20;;;;;;6252938;22;20426;-87
2022/06/18 02:16:09;;;;;;;6.67;3.67;;;24.20;55.00;;;;;;6264086;23;20387;-89
2022/06/18 02:18:36;;;;;;;5.43;4.43;;;24.20;55.00;;;;;;6212034;23;20501;-89
2022/06/18 02:21:07;;;;;;;4.40;3.77;;;24.20;55.30;;;;;;6224474;23;20462;-89
2022/06/18 02:23:33;;;;;;;5.07;3.90;;;24.20;55.30;;;;;;6223792;23;20442;-89
2022/06/18 02:26:00;;;;;;;10.40;4.20;;;24.10;55.20;;;;;;6223752;23;20403;-89
2022/06/18 02:28:36;;;;;;;7.70;4.23;;;24.20;55.10;;;;;;6222555;23;20375;-89
2022/06/18 02:31:03;;;;;;;6.20;4.20;;;24.10;55.30;;;;;;6222283;23;20379;-88
2022/06/18 02:33:38;;;;;;;7.60;5.53;;;24.10;55.20;;;;;;6222607;23;20443;-88
2022/06/18 02:36:29;;;;;;;5.83;4.40;;;24.10;55.10;;;;;;6222340;23;20857;-88
2022/06/18 02:39:15;;;;;;;9.83;4.33;;;24.10;55.20;;;;;;6252279;23;20359;-89
2022/06/18 02:41:42;;;;;;;5.13;3.70;;;24.00;55.30;;;;;;6225090;23;20655;-89
2022/06/18 02:44:09;;;;;;;7.90;4.40;;;24.00;55.60;;;;;;6225372;23;20808;-88
2022/06/18 02:46:35;;;;;;;5.03;4.53;;;24.00;55.70;;;;;;6226362;23;20664;-90
2022/06/18 02:49:04;;;;;;;7.97;4.13;;;24.00;55.60;;;;;;6226649;23;20399;-90
2022/06/18 02:51:32;;;;;;;5.00;3.80;;;23.90;55.80;;;;;;6238667;23;20428;-89
2022/06/18 02:53:58;;;;;;;6.30;3.87;;;23.90;55.60;;;;;;6239360;23;20415;-89
2022/06/18 02:56:24;;;;;;;6.87;4.23;;;23.90;55.80;;;;;;6237619;23;20391;-89
2022/06/18 02:58:51;;;;;;;7.00;4.30;;;23.90;56.00;;;;;;6251749;23;20155;-89
2022/06/18 03:01:20;;;;;;;10.47;5.23;;;23.90;56.20;;;;;;6224482;23;20386;-89
2022/06/18 03:03:56;;;;;;;5.87;4.83;;;23.90;56.10;;;;;;6223781;23;20434;-89
2022/06/18 03:06:23;;;;;;;8.23;4.63;;;23.80;56.30;;;;;;6252285;23;20355;-89
2022/06/18 03:08:49;;;;;;;5.47;4.93;;;23.80;56.10;;;;;;6252124;23;20372;-90
2022/06/18 03:14:04;;;;;;;8.60;4.67;;;23.80;56.20;;;;;;6252273;22;20393;-89
2022/06/18 03:16:30;;;;;;;9.03;4.70;;;23.80;56.00;;;;;;6225240;23;20407;-89
2022/06/18 03:18:58;;;;;;;4.97;4.17;;;23.80;56.30;;;;;;6222577;23;20387;-88
2022/06/18 03:21:31;;;;;;;5.83;4.17;;;23.80;56.10;;;;;;6222805;23;20467;-89
2022/06/18 03:23:56;;;;;;;5.50;4.27;;;23.70;56.40;;;;;;6221653;23;20449;-89
2022/06/18 03:26:22;;;;;;;5.80;4.03;;;23.70;56.40;;;;;;6220165;23;20787;-88
2022/06/18 03:28:48;;;;;;;6.60;4.30;;;23.60;56.10;;;;;;6220056;23;20183;-89
2022/06/18 03:31:14;;;;;;;6.77;4.73;;;23.70;56.50;;;;;;6247387;23;20196;-89
2022/06/18 03:33:41;;;;;;;4.80;4.30;;;23.70;56.30;;;;;;6221138;23;20720;-88
2022/06/18 03:36:09;;;;;;;6.87;4.40;;;23.70;56.00;;;;;;6220544;23;20904;-87
2022/06/18 03:38:35;;;;;;;7.20;4.07;;;23.70;55.80;;;;;;6220088;23;20407;-88
2022/06/18 03:41:00;;;;;;;6.60;4.90;;;23.70;56.10;;;;;;6221004;23;20414;-89
2022/06/18 03:43:27;;;;;;;5.60;4.40;;;23.70;55.30;;;;;;6249784;22;20457;-89
2022/06/18 03:45:58;;;;;;;5.10;4.00;;;23.70;56.00;;;;;;6223431;23;20184;-88
2022/06/18 03:48:32;;;;;;;6.00;4.13;;;23.70;55.90;;;;;;6222649;23;20427;-88
2022/06/18 03:50:58;;;;;;;5.87;3.60;;;23.70;55.20;;;;;;6222539;23;20371;-89
2022/06/18 03:53:23;;;;;;;7.07;4.33;;;23.70;55.80;;;;;;6222800;23;20414;-87
2022/06/18 03:55:50;;;;;;;7.63;4.30;;;23.60;55.80;;;;;;6222962;23;20391;-88
2022/06/18 03:58:15;;;;;;;8.20;4.30;;;23.70;55.40;;;;;;6224421;23;20536;-88
2022/06/18 04:00:41;;;;;;;5.43;4.77;;;23.70;55.40;;;;;;6222669;23;20399;-88
2022/06/18 04:03:07;;;;;;;8.90;4.90;;;23.80;55.30;;;;;;6250185;22;20180;-89
2022/06/18 04:05:38;;;;;;;7.47;4.37;;;23.80;55.00;;;;;;6224465;23;20236;-89
2022/06/18 04:08:04;;;;;;;7.33;5.77;;;23.90;54.50;;;;;;6250666;23;20368;-88
2022/06/18 04:10:29;;;;;;;6.03;4.47;;;24.00;53.90;;;;;;6221943;23;20468;-88
2022/06/18 04:12:56;;;;;;;6.00;4.30;;;24.10;53.60;;;;;;6221859;23;20427;-88
2022/06/18 04:15:22;;;;;;;5.83;4.20;;;24.10;53.60;;;;;;6222147;23;20468;-87
2022/06/18 04:17:48;;;;;;;8.17;4.23;;;24.00;54.10;;;;;;6222446;23;20383;-89
2022/06/18 04:20:29;;;;;;;7.63;5.73;;;24.00;54.30;;;;;;6198771;23;20391;-88
2022/06/18 04:22:55;;;;;;;6.20;4.80;;;24.10;54.50;;;;;;6224222;23;20808;-88
2022/06/18 04:25:22;;;;;;;5.63;4.37;;;24.10;54.90;;;;;;6223429;23;20968;-89
2022/06/18 04:27:48;;;;;;;6.63;4.60;;;24.10;54.70;;;;;;6223803;23;20380;-89
2022/06/18 04:30:16;;;;;;;11.80;4.57;;;24.20;54.80;;;;;;6224411;23;20499;-89
2022/06/18 04:32:42;;;;;;;10.20;4.07;;;24.20;54.70;;;;;;6223641;23;20399;-89
2022/06/18 04:35:10;;;;;;;7.00;4.43;;;24.30;54.90;;;;;;6251599;23;20458;-87
2022/06/18 04:37:37;;;;;;;7.07;4.57;;;24.30;54.30;;;;;;6228052;23;20179;-88
2022/06/18 04:40:03;;;;;;;7.37;5.27;;;24.30;53.80;;;;;;6234506;23;20384;-88
2022/06/18 04:42:29;;;;;;;7.03;4.30;;;24.40;53.90;;;;;;6243666;23;20435;-88
2022/06/18 04:44:55;;;;;;;7.90;4.77;;;24.40;53.30;;;;;;6234350;23;20431;-89
2022/06/18 04:47:21;;;;;;;6.70;4.87;;;24.50;53.40;;;;;;6252427;23;20602;-89
2022/06/18 04:49:46;;;;;;;5.47;4.67;;;24.60;53.60;;;;;;6225159;23;20155;-88
2022/06/18 04:52:12;;;;;;;9.60;5.03;;;24.60;52.90;;;;;;6223380;22;20386;-90
2022/06/18 04:54:38;;;;;;;7.40;4.90;;;24.70;53.10;;;;;;6222236;23;20194;-90
2022/06/18 04:57:04;;;;;;;6.30;4.30;;;24.80;52.90;;;;;;6223043;23;20158;-89
2022/06/18 04:59:30;;;;;;;10.00;4.50;;;25.10;51.90;;;;;;6222565;23;20503;-88
2022/06/18 05:02:07;;;;;;;6.60;4.20;;;25.20;51.50;;;;;;6221775;23;20162;-88
2022/06/18 05:04:33;;;;;;;9.50;5.10;;;25.40;50.50;;;;;;6222719;23;20769;-87
2022/06/18 05:06:59;;;;;;;7.73;4.90;;;25.50;49.90;;;;;;6222403;23;20396;-89
2022/06/18 05:09:24;;;;;;;10.87;4.43;;;25.60;50.10;;;;;;6223233;23;20183;-88
2022/06/18 05:11:50;;;;;;;10.87;5.13;;;25.70;50.00;;;;;;6250011;23;20418;-89
2022/06/18 05:14:16;;;;;;;6.20;4.27;;;25.80;49.70;;;;;;6250018;22;20169;-89
2022/06/18 05:16:43;;;;;;;9.37;5.40;;;26.00;49.60;;;;;;6222731;23;20529;-89
2022/06/18 05:19:23;;;;;;;5.90;4.20;;;26.20;49.30;;;;;;6249902;23;20198;-88
2022/06/18 05:21:48;;;;;;;6.40;4.50;;;26.60;47.90;;;;;;6223032;23;20745;-88
2022/06/18 05:24:14;;;;;;;6.37;4.43;;;26.90;47.20;;;;;;6223286;23;20433;-89
2022/06/18 05:26:44;;;;;;;14.43;5.30;;;27.10;47.30;;;;;;6223319;23;20270;-89
2022/06/18 05:29:10;;;;;;;6.93;4.60;;;27.10;46.70;;;;;;6224018;23;20158;-89
2022/06/18 05:31:36;;;;;;;10.83;5.30;;;27.40;46.40;;;;;;6222848;23;20447;-89
2022/06/18 05:34:03;;;;;;;5.63;5.00;;;27.40;46.60;;;;;;6224156;23;20780;-90
2022/06/18 05:36:29;;;;;;;6.93;4.87;;;27.50;45.70;;;;;;6224542;23;20156;-90
2022/06/18 05:38:57;;;;;;;10.00;4.73;;;27.70;45.20;;;;;;6224196;23;20466;-90
2022/06/18 05:41:23;;;;;;;7.13;4.70;;;28.00;45.20;;;;;;6220206;23;20398;-89
2022/06/18 05:43:50;;;;;;;8.33;5.03;;;28.20;44.30;;;;;;6222944;23;20427;-90
2022/06/18 05:46:16;;;;;;;6.07;5.20;;;28.30;44.10;;;;;;6223431;23;20733;-91
2022/06/18 05:48:42;;;;;;;5.23;4.50;;;28.70;43.20;;;;;;6222750;23;20366;-90
2022/06/18 05:51:08;;;;;;;11.53;4.93;;;28.70;43.20;;;;;;6249654;23;20704;-88
2022/06/18 05:53:34;;;;;;;9.60;5.57;;;28.60;43.20;;;;;;6222286;23;20410;-91
2022/06/18 05:56:00;;;;;;;9.97;5.20;;;28.60;43.90;;;;;;6223497;23;20453;-90
2022/06/18 05:58:27;;;;;;;6.07;4.77;;;28.80;42.90;;;;;;6223097;23;20278;-91
2022/06/18 06:00:53;;;;;;;9.23;5.70;;;28.80;42.80;;;;;;6222929;23;20195;-88
2022/06/18 06:03:18;;;;;;;8.10;5.57;;;28.70;43.00;;;;;;6226995;23;20427;-88
2022/06/18 06:05:44;;;;;;;9.97;4.57;;;28.70;43.20;;;;;;6223525;23;20247;-89
2022/06/18 06:08:15;;;;;;;6.23;4.70;;;28.60;43.00;;;;;;6223574;23;20160;-90
2022/06/18 06:13:26;;;;;;;9.30;6.03;;;29.50;41.00;;;;;;6249194;22;20415;-90
2022/06/18 06:15:53;;;;;;;8.30;5.00;;;29.40;41.90;;;;;;6222385;23;20422;-90
2022/06/18 06:18:23;;;;;;;8.37;5.60;;;29.20;42.40;;;;;;6223025;23;20391;-90
2022/06/18 06:20:51;;;;;;;10.40;5.00;;;29.20;42.10;;;;;;6224050;23;20718;-90
2022/06/18 06:23:18;;;;;;;18.33;6.83;;;29.70;41.40;;;;;;6221582;23;20427;-91
2022/06/18 06:25:46;;;;;;;19.67;7.50;;;29.60;40.00;;;;;;6223379;23;20402;-89
2022/06/18 06:28:25;;;;;;;15.20;7.40;;;29.40;39.80;;;;;;6223214;23;20434;-90
2022/06/18 06:30:52;;;;;;;14.87;6.23;;;29.30;39.40;;;;;;6250534;23;20363;-89
2022/06/18 06:33:19;;;;;;;15.90;6.80;;;29.30;39.60;;;;;;6250020;22;20460;-90
2022/06/18 06:35:46;;;;;;;15.57;7.10;;;29.70;38.80;;;;;;6249885;23;20702;-89
2022/06/18 06:38:13;;;;;;;12.30;6.23;;;29.90;38.00;;;;;;6223280;23;20391;-91
2022/06/18 06:40:41;;;;;;;13.70;5.67;;;29.60;38.60;;;;;;6225087;23;20771;-91
2022/06/18 06:43:07;;;;;;;11.47;7.20;;;29.80;38.90;;;;;;6224362;23;20415;-90
2022/06/18 06:45:34;;;;;;;12.03;5.53;;;29.80;38.50;;;;;;6226162;23;20411;-90
2022/06/18 06:48:01;;;;;;;9.70;5.70;;;29.70;38.90;;;;;;6235997;23;20487;-88
2022/06/18 06:50:29;;;;;;;12.50;6.10;;;30.10;38.30;;;;;;6206142;23;20976;-89
2022/06/18 06:52:56;;;;;;;12.87;5.90;;;30.40;37.60;;;;;;6231407;23;20403;-91
2022/06/18 06:58:14;;;;;;;10.33;6.17;;;29.80;38.70;;;;;;6264255;23;20439;-90
2022/06/18 07:00:43;;;;;;;11.77;6.83;;;29.60;39.00;;;;;;6240399;23;20383;-91
2022/06/18 07:03:11;;;;;;;11.93;5.53;;;29.50;39.30;;;;;;6210832;23;20407;-90
2022/06/18 07:05:37;;;;;;;9.30;6.20;;;30.10;38.70;;;;;;6241068;23;20371;-89
2022/06/18 07:08:03;;;;;;;15.70;6.93;;;30.80;37.20;;;;;;6242520;23;20423;-88
2022/06/18 07:10:28;;;;;;;10.50;6.40;;;30.20;38.10;;;;;;6228847;23;20171;-89
2022/06/18 07:12:54;;;;;;;11.40;5.83;;;30.10;38.90;;;;;;6220657;23;20399;-87
2022/06/18 07:15:20;;;;;;;10.83;6.20;;;30.60;37.20;;;;;;6219845;23;20218;-89
2022/06/18 07:17:46;;;;;;;9.60;5.70;;;30.70;38.20;;;;;;6195603;23;20163;-89
2022/06/18 07:20:18;;;;;;;9.47;5.50;;;30.80;37.80;;;;;;6224515;23;20474;-89
2022/06/18 07:22:43;;;;;;;11.80;6.47;;;30.90;37.40;;;;;;6224106;23;20194;-89
2022/06/18 07:25:11;;;;;;;13.00;6.80;;;31.20;36.30;;;;;;6223030;23;20999;-90
2022/06/18 07:27:39;;;;;;;7.20;6.00;;;31.50;35.20;;;;;;6250894;23;20240;-90
2022/06/18 07:30:08;;;;;;;16.03;6.10;;;31.50;34.50;;;;;;6251291;23;20367;-89
2022/06/18 07:32:36;;;;;;;7.80;5.10;;;31.20;34.90;;;;;;6224328;23;20876;-90
2022/06/18 07:35:03;;;;;;;11.70;7.10;;;30.90;37.00;;;;;;6252213;23;20376;-89
2022/06/18 07:37:29;;;;;;;10.13;6.17;;;30.80;36.20;;;;;;6225291;23;20387;-90
2022/06/18 07:39:55;;;;;;;8.00;5.40;;;30.50;37.00;;;;;;6228022;23;20390;-88
2022/06/18 07:42:22;;;;;;;7.73;5.00;;;30.40;38.40;;;;;;6234742;22;20374;-88
2022/06/18 07:44:48;;;;;;;13.30;7.30;;;30.30;39.20;;;;;;6231546;23;20262;-88
2022/06/18 07:47:16;;;;;;;14.10;11.50;;;30.30;37.60;;;;;;6229623;23;20430;-89
2022/06/18 07:49:44;;;;;;;14.00;7.10;;;30.20;38.80;;;;;;6197228;23;20415;-88
2022/06/18 07:52:12;;;;;;;11.20;4.90;;;29.60;40.40;;;;;;6221729;22;20354;-90
2022/06/18 07:54:39;;;;;;;13.37;5.77;;;29.50;41.90;;;;;;6221732;23;20448;-89
2022/06/18 07:57:05;;;;;;;8.60;6.23;;;29.50;42.40;;;;;;6221270;23;20687;-89
2022/06/18 07:59:32;;;;;;;13.00;6.60;;;29.80;40.20;;;;;;6248245;23;20341;-89
2022/06/18 08:02:25;;;;;;;6.00;5.40;;;29.90;39.60;;;;;;6248103;23;20354;-89
2022/06/18 08:04:50;;;;;;;11.63;5.60;;;29.80;40.30;;;;;;6217381;23;20510;-89
2022/06/18 08:07:16;;;;;;;6.00;5.00;;;29.60;42.20;;;;;;6247642;23;20378;-89
2022/06/18 08:09:42;;;;;;;9.83;5.40;;;29.70;40.50;;;;;;6220466;23;20157;-88
2022/06/18 08:12:08;;;;;;;7.20;4.07;;;29.70;42.10;;;;;;6247144;22;20620;-88
2022/06/18 08:14:33;;;;;;;5.50;4.40;;;29.60;42.50;;;;;;6219955;23;20156;-88
2022/06/18 08:16:59;;;;;;;6.80;4.10;;;29.20;45.40;;;;;;6220148;23;20385;-88
2022/06/18 08:19:25;;;;;;;13.00;5.10;;;28.90;45.50;;;;;;6220780;23;20290;-88
2022/06/18 08:21:52;;;;;;;10.60;5.37;;;29.00;46.40;;;;;;6220614;23;20274;-88
2022/06/18 08:24:20;;;;;;;7.43;5.40;;;28.90;45.20;;;;;;6220311;23;20188;-88
2022/06/18 08:26:49;;;;;;;11.17;6.27;;;29.10;45.70;;;;;;6220337;23;20459;-88
2022/06/18 08:29:19;;;;;;;8.70;5.70;;;29.00;45.60;;;;;;6221065;23;20429;-88
2022/06/18 08:31:45;;;;;;;7.50;6.50;;;29.00;46.30;;;;;;6221235;23;20410;-88
2022/06/18 08:34:11;;;;;;;9.43;5.97;;;28.90;45.70;;;;;;6247654;22;20377;-89
2022/06/18 08:36:39;;;;;;;12.93;6.27;;;29.00;46.20;;;;;;6220397;23;20373;-89
2022/06/18 08:39:06;;;;;;;11.23;6.07;;;29.30;43.30;;;;;;6249623;23;20346;-88
2022/06/18 08:41:53;;;;;;;12.03;6.27;;;29.30;43.70;;;;;;6223983;23;20397;-89
2022/06/18 08:44:38;;;;;;;10.73;7.07;;;29.30;44.70;;;;;;6252178;22;20472;-89
2022/06/18 08:47:36;;;;;;;8.60;5.87;;;29.20;45.30;;;;;;6228099;23;20465;-88
2022/06/18 08:50:35;;;;;;;7.27;5.60;;;29.20;45.80;;;;;;6216327;23;20358;-89
2022/06/18 08:53:35;;;;;;;11.10;5.40;;;29.20;45.10;;;;;;6227188;23;20382;-90
2022/06/18 08:56:10;;;;;;;12.83;6.20;;;29.40;43.20;;;;;;6255492;23;20456;-90
2022/06/18 08:58:41;;;;;;;10.30;5.37;;;29.40;43.70;;;;;;6226480;23;20671;-89
2022/06/18 09:01:37;;;;;;;10.47;4.70;;;29.40;44.10;;;;;;6223366;23;20346;-88
2022/06/18 09:04:16;;;;;;;10.97;5.60;;;29.30;45.00;;;;;;6220005;23;20435;-88
2022/06/18 09:06:51;;;;;;;14.40;7.20;;;29.00;45.90;;;;;;6220491;23;20343;-89
2022/06/18 09:09:38;;;;;;;13.30;5.53;;;28.70;45.10;;;;;;6221998;23;20364;-87
2022/06/18 09:12:16;;;;;;;15.37;5.87;;;28.60;46.10;;;;;;6248501;22;20382;-86
2022/06/18 09:14:45;;;;;;;16.87;6.20;;;28.60;45.30;;;;;;6221903;23;20399;-87
2022/06/18 09:17:29;;;;;;;9.53;4.80;;;28.70;46.10;;;;;;6248549;23;20419;-88
2022/06/18 09:20:44;;;;;;;8.80;4.80;;;28.90;46.40;;;;;;6223149;23;20379;-87
2022/06/18 09:23:22;;;;;;;9.90;5.80;;;28.90;46.10;;;;;;6202507;23;20406;-88
2022/06/18 09:25:50;;;;;;;6.80;4.47;;;29.30;42.40;;;;;;6222467;23;20363;-88
2022/06/18 09:28:39;;;;;;;11.43;5.07;;;29.40;43.70;;;;;;6227372;23;20375;-89
2022/06/18 09:31:19;;;;;;;7.90;4.93;;;29.50;42.00;;;;;;6229471;23;20437;-89
2022/06/18 09:33:47;;;;;;;11.83;5.77;;;29.40;44.80;;;;;;6255088;22;20381;-89
2022/06/18 09:36:12;;;;;;;8.47;5.03;;;29.30;44.60;;;;;;6220641;23;20366;-88
2022/06/18 09:38:45;;;;;;;7.80;5.00;;;29.10;46.00;;;;;;6219917;23;20414;-87
2022/06/18 09:41:22;;;;;;;9.93;5.53;;;28.80;45.80;;;;;;6219509;23;20239;-88
2022/06/18 09:44:09;;;;;;;9.87;4.90;;;28.60;45.50;;;;;;6219267;23;20469;-88
2022/06/18 09:46:41;;;;;;;12.50;6.47;;;28.80;46.30;;;;;;6219831;23;20429;-85
2022/06/18 09:49:07;;;;;;;10.00;5.67;;;29.10;43.30;;;;;;6247291;23;20357;-89
2022/06/18 09:51:36;;;;;;;11.07;5.43;;;29.50;41.40;;;;;;6219933;23;20358;-87
2022/06/18 09:54:05;;;;;;;9.20;5.67;;;29.50;42.60;;;;;;6247012;22;20403;-88
2022/06/18 09:56:37;;;;;;;11.13;5.80;;;29.40;42.80;;;;;;6246545;23;20409;-88
2022/06/18 09:59:17;;;;;;;11.93;5.80;;;29.80;39.70;;;;;;6220235;23;20379;-90
2022/06/18 10:01:49;;;;;;;8.77;4.70;;;30.00;39.30;;;;;;6220418;23;20374;-87
2022/06/18 10:07:17;;;;;;;8.67;5.93;;;29.80;43.00;;;;;;6247534;23;20406;-86
2022/06/18 10:09:54;;;;;;;10.00;5.40;;;30.00;42.10;;;;;;6247497;23;20379;-85
2022/06/18 10:12:22;;;;;;;9.80;5.37;;;29.80;43.70;;;;;;6195220;22;20375;-86
2022/06/18 10:14:54;;;;;;;8.97;6.00;;;29.80;44.10;;;;;;6246081;23;20349;-86
2022/06/18 10:17:43;;;;;;;12.00;4.90;;;30.00;41.30;;;;;;6246920;23;20334;-86
2022/06/18 10:20:19;;;;;;;10.00;4.90;;;30.10;41.90;;;;;;6209497;23;20375;-88
2022/06/18 10:23:09;;;;;;;12.27;5.57;;;30.10;41.30;;;;;;6221271;23;20400;-89
2022/06/18 10:25:42;;;;;;;9.30;5.40;;;30.20;40.20;;;;;;6222595;23;20453;-88
2022/06/18 10:28:26;;;;;;;13.27;5.23;;;30.30;39.80;;;;;;6223951;23;20837;-89
2022/06/18 10:31:09;;;;;;;12.67;5.27;;;30.40;38.80;;;;;;6225405;23;20372;-88
2022/06/18 10:34:05;;;;;;;10.07;4.63;;;30.40;39.20;;;;;;6225186;23;20450;-88
2022/06/18 10:36:49;;;;;;;16.37;6.20;;;30.20;39.70;;;;;;6225798;23;20364;-88
2022/06/18 10:39:47;;;;;;;13.70;6.10;;;30.20;40.70;;;;;;6222751;23;20368;-90
2022/06/18 10:42:40;;;;;;;10.80;5.10;;;30.10;41.30;;;;;;6212420;22;20354;-90
2022/06/18 10:45:21;;;;;;;10.47;5.33;;;30.30;40.60;;;;;;6224397;23;20415;-89
2022/06/18 10:47:50;;;;;;;8.40;5.60;;;30.60;38.10;;;;;;6232557;23;20354;-89
2022/06/18 10:50:21;;;;;;;10.30;4.90;;;30.70;39.00;;;;;;6232676;23;20715;-90
2022/06/18 10:53:11;;;;;;;10.77;5.00;;;30.70;39.30;;;;;;6220626;23;20504;-89
2022/06/18 10:55:37;;;;;;;6.87;4.90;;;30.50;39.70;;;;;;6220759;23;20697;-89
2022/06/18 10:58:09;;;;;;;9.00;5.50;;;30.60;39.40;;;;;;6220484;23;20388;-88
2022/06/18 11:00:36;;;;;;;9.03;5.00;;;30.40;39.70;;;;;;6219929;23;20692;-89
2022/06/18 11:03:03;;;;;;;6.30;4.97;;;30.20;40.50;;;;;;6248039;22;20890;-89
2022/06/18 11:05:35;;;;;;;13.00;5.70;;;30.10;41.00;;;;;;6220516;23;21082;-87
2022/06/18 11:08:05;;;;;;;9.00;4.90;;;30.50;39.20;;;;;;6246220;23;20339;-87
2022/06/18 11:10:51;;;;;;;11.37;5.93;;;30.70;38.50;;;;;;6219397;23;20362;-87
2022/06/18 11:13:27;;;;;;;14.67;6.03;;;30.80;39.70;;;;;;6219489;23;20403;-88
2022/06/18 11:16:26;;;;;;;17.53;5.50;;;30.60;39.90;;;;;;6220183;23;20392;-87
2022/06/18 11:19:14;;;;;;;10.67;5.10;;;30.70;38.70;;;;;;6207449;23;20835;-89
2022/06/18 11:21:44;;;;;;;10.13;7.00;;;30.60;38.70;;;;;;6220045;23;20358;-89
2022/06/18 11:24:17;;;;;;;11.80;5.17;;;30.40;39.00;;;;;;6219705;23;20412;-88
2022/06/18 11:26:48;;;;;;;9.90;4.93;;;30.50;38.80;;;;;;6246797;23;20348;-88
2022/06/18 11:29:51;;;;;;;12.33;5.03;;;30.60;38.60;;;;;;6220080;23;20404;-87
2022/06/18 11:32:24;;;;;;;10.00;5.30;;;30.50;38.80;;;;;;6219749;22;20360;-87
2022/06/18 11:35:08;;;;;;;11.07;5.63;;;30.30;39.10;;;;;;6219959;23;20376;-87
2022/06/18 11:37:34;;;;;;;12.73;5.43;;;30.40;37.90;;;;;;6219422;23;20383;-88
2022/06/18 11:40:04;;;;;;;9.53;5.83;;;30.80;36.80;;;;;;6247386;23;20361;-87
2022/06/18 11:42:54;;;;;;;12.30;5.10;;;30.90;37.80;;;;;;6248116;22;20372;-88
2022/06/18 11:45:48;;;;;;;9.33;5.10;;;30.70;37.90;;;;;;6220580;23;20291;-87
2022/06/18 11:48:32;;;;;;;6.70;5.17;;;30.50;38.00;;;;;;6248225;23;20327;-88
2022/06/18 11:51:39;;;;;;;7.27;4.60;;;30.80;37.00;;;;;;6222712;23;20425;-87
2022/06/18 11:54:33;;;;;;;8.70;5.47;;;31.00;39.00;;;;;;6261748;22;20416;-88
2022/06/18 11:57:32;;;;;;;7.40;5.23;;;31.00;38.10;;;;;;6241777;23;20367;-91
2022/06/18 12:00:16;;;;;;;10.27;5.10;;;31.40;37.00;;;;;;6229354;23;20420;-90
2022/06/18 12:02:59;;;;;;;8.97;5.60;;;31.70;37.00;;;;;;6198438;23;20435;-90
2022/06/18 12:05:34;;;;;;;9.20;5.13;;;31.40;37.80;;;;;;6249875;23;20703;-90
2022/06/18 12:08:02;;;;;;;12.13;5.70;;;31.40;38.60;;;;;;6229371;23;20873;-86
2022/06/18 12:10:28;;;;;;;7.60;5.00;;;31.70;37.40;;;;;;6244625;23;20372;-87
2022/06/18 12:13:09;;;;;;;14.37;5.33;;;31.80;37.70;;;;;;6230758;23;20403;-89
2022/06/18 12:15:45;;;;;;;7.90;5.20;;;31.90;37.90;;;;;;6222850;23;20202;-89
2022/06/18 12:18:39;;;;;;;9.33;4.93;;;32.00;38.80;;;;;;6223197;23;20480;-89
2022/06/18 12:21:23;;;;;;;11.60;5.20;;;31.80;38.30;;;;;;6223040;23;20383;-88
2022/06/18 12:24:10;;;;;;;9.90;5.37;;;31.80;36.00;;;;;;6223108;23;20457;-88
2022/06/18 12:27:11;;;;;;;15.80;5.90;;;32.00;35.80;;;;;;6223382;23;20371;-89
2022/06/18 12:29:37;;;;;;;12.53;5.73;;;32.20;35.30;;;;;;6237181;23;20375;-88
2022/06/18 12:32:08;;;;;;;12.00;5.43;;;32.30;35.50;;;;;;6234396;23;20447;-88
2022/06/18 12:34:46;;;;;;;8.90;5.20;;;32.30;35.20;;;;;;6249232;23;20145;-89
2022/06/18 12:37:23;;;;;;;12.83;5.13;;;32.20;36.80;;;;;;6221769;23;20470;-87
2022/06/18 12:39:54;;;;;;;10.73;5.30;;;32.20;37.50;;;;;;6222580;23;20361;-87
2022/06/18 12:42:46;;;;;;;11.20;4.93;;;32.10;38.40;;;;;;6221587;22;20387;-87
2022/06/18 12:45:43;;;;;;;6.80;4.73;;;32.10;38.00;;;;;;6202493;23;20628;-88
2022/06/18 12:48:30;;;;;;;6.83;4.70;;;32.30;38.00;;;;;;6144177;23;20387;-90
2022/06/18 12:51:03;;;;;;;9.83;4.50;;;32.40;36.20;;;;;;6222721;23;20384;-90
2022/06/18 12:54:09;;;;;;;11.17;4.70;;;32.60;34.00;;;;;;6222978;23;20405;-89
2022/06/18 12:56:49;;;;;;;13.13;5.30;;;32.60;33.80;;;;;;6173894;23;20383;-88
2022/06/18 12:59:26;;;;;;;10.53;4.93;;;32.80;34.00;;;;;;6222630;23;20846;-89
2022/06/18 13:02:05;;;;;;;9.10;4.50;;;32.70;35.10;;;;;;6222670;23;20379;-89
2022/06/18 13:04:31;;;;;;;9.23;4.60;;;32.80;34.70;;;;;;6223402;23;20426;-90
2022/06/18 13:07:15;;;;;;;12.13;4.87;;;32.90;35.20;;;;;;6221869;23;20742;-86
2022/06/18 13:10:09;;;;;;;11.63;4.97;;;33.00;36.30;;;;;;6223515;23;20160;-89
2022/06/18 13:13:09;;;;;;;8.90;4.80;;;33.20;33.80;;;;;;6225884;23;21063;-87
2022/06/18 13:15:44;;;;;;;9.80;4.90;;;33.10;34.90;;;;;;6229510;23;20426;-87
2022/06/18 13:18:21;;;;;;;11.47;4.50;;;32.80;35.00;;;;;;6235252;23;20373;-88
2022/06/18 13:20:51;;;;;;;8.57;4.73;;;32.40;35.90;;;;;;6261132;23;20365;-87
2022/06/18 13:29:19;;;;;;;7.30;5.43;;;32.90;33.30;;;;;;6249742;23;20417;-89
2022/06/18 13:32:01;;;;;;;11.00;5.57;;;33.10;33.30;;;;;;6222164;23;20376;-90